SAS48L ENBR-ENVA
Flight info
| Callsign | SAS48L |
|---|---|
| Flight time | 0h 49m |
| Altitude | 37000 |
| Route | INTUM DCT NELSU |
| Aircraft | A319/M-SDE3FGHIRWY/LB1 |
Departure
| Time | 2026-04-29 12:12 |
|---|---|
| Airport | Bergen Airport, Flesland (ENBR) |
Arrival
| Time | 2026-04-29 13:02 |
|---|---|
| Airport | Trondheim Airport, Værnes (ENVA) |
| Time | Latitude | Longitude | Altitude | Speed | Heading |
|---|---|---|---|---|---|
| 2026-04-29 11:51 | 60.28740 | 5.22911 | 173 ft | 0 kts | 80° |
| 2026-04-29 12:06 | 60.28740 | 5.22907 | 173 ft | 2 kts | 80° |
| 2026-04-29 12:06 | 60.28736 | 5.22855 | 173 ft | 4 kts | 80° |
| 2026-04-29 12:06 | 60.28732 | 5.22809 | 173 ft | 1 kts | 80° |
| 2026-04-29 12:06 | 60.28732 | 5.22808 | 173 ft | 0 kts | 80° |
| 2026-04-29 12:09 | 60.28732 | 5.22810 | 173 ft | 1 kts | 80° |
| 2026-04-29 12:09 | 60.28739 | 5.22813 | 173 ft | 1 kts | 8° |
| 2026-04-29 12:09 | 60.28738 | 5.22795 | 173 ft | 3 kts | 261° |
| 2026-04-29 12:10 | 60.28719 | 5.22668 | 170 ft | 15 kts | 257° |
| 2026-04-29 12:10 | 60.28687 | 5.22446 | 165 ft | 16 kts | 250° |
| 2026-04-29 12:10 | 60.28597 | 5.22387 | 165 ft | 18 kts | 168° |
| 2026-04-29 12:10 | 60.28450 | 5.22438 | 163 ft | 24 kts | 171° |
| 2026-04-29 12:11 | 60.28292 | 5.22483 | 159 ft | 11 kts | 191° |
| 2026-04-29 12:11 | 60.28279 | 5.22360 | 154 ft | 11 kts | 257° |
| 2026-04-29 12:11 | 60.28268 | 5.22218 | 155 ft | 3 kts | 272° |
| 2026-04-29 12:11 | 60.28281 | 5.22175 | 157 ft | 3 kts | 340° |
| 2026-04-29 12:12 | 60.28334 | 5.22153 | 159 ft | 18 kts | 346° |
| 2026-04-29 12:12 | 60.28697 | 5.22031 | 163 ft | 87 kts | 351° |
| 2026-04-29 12:12 | 60.29499 | 5.21757 | 202 ft | 142 kts | 348° |
| 2026-04-29 12:12 | 60.30521 | 5.21418 | 810 ft | 153 kts | 349° |
| 2026-04-29 12:13 | 60.31620 | 5.21471 | 1495 ft | 168 kts | 12° |
| 2026-04-29 12:13 | 60.32780 | 5.22468 | 1913 ft | 195 kts | 24° |
| 2026-04-29 12:13 | 60.34105 | 5.23746 | 2516 ft | 222 kts | 24° |
| 2026-04-29 12:13 | 60.35560 | 5.25168 | 3294 ft | 246 kts | 25° |
| 2026-04-29 12:14 | 60.37178 | 5.26758 | 3974 ft | 270 kts | 25° |
| 2026-04-29 12:14 | 60.38860 | 5.28415 | 5179 ft | 271 kts | 24° |
| 2026-04-29 12:14 | 60.40568 | 5.30089 | 6353 ft | 271 kts | 23° |
| 2026-04-29 12:14 | 60.42268 | 5.31736 | 7540 ft | 271 kts | 22° |
| 2026-04-29 12:15 | 60.43981 | 5.33378 | 8617 ft | 274 kts | 22° |
| 2026-04-29 12:15 | 60.45690 | 5.35010 | 9663 ft | 276 kts | 22° |
| 2026-04-29 12:15 | 60.47462 | 5.36701 | 10667 ft | 281 kts | 22° |
| 2026-04-29 12:15 | 60.49274 | 5.38426 | 11144 ft | 303 kts | 22° |
| 2026-04-29 12:16 | 60.51242 | 5.40297 | 11651 ft | 320 kts | 22° |
| 2026-04-29 12:16 | 60.53276 | 5.42242 | 12440 ft | 325 kts | 22° |
| 2026-04-29 12:16 | 60.55332 | 5.44216 | 13356 ft | 327 kts | 22° |
| 2026-04-29 12:16 | 60.57396 | 5.46203 | 14239 ft | 330 kts | 22° |
| 2026-04-29 12:17 | 60.59483 | 5.48218 | 15009 ft | 334 kts | 22° |
| 2026-04-29 12:17 | 60.61590 | 5.50255 | 15766 ft | 337 kts | 22° |
| 2026-04-29 12:17 | 60.63716 | 5.52313 | 16517 ft | 340 kts | 22° |
| 2026-04-29 12:17 | 60.65864 | 5.54394 | 17230 ft | 344 kts | 22° |
| 2026-04-29 12:18 | 60.68038 | 5.56500 | 17946 ft | 348 kts | 22° |
| 2026-04-29 12:18 | 60.70234 | 5.58630 | 18693 ft | 351 kts | 22° |
| 2026-04-29 12:18 | 60.72449 | 5.60778 | 19334 ft | 354 kts | 22° |
| 2026-04-29 12:18 | 60.74689 | 5.62948 | 19953 ft | 358 kts | 22° |
| 2026-04-29 12:19 | 60.76949 | 5.65146 | 20603 ft | 362 kts | 22° |
| 2026-04-29 12:19 | 60.79232 | 5.67373 | 21241 ft | 365 kts | 22° |
| 2026-04-29 12:19 | 60.81539 | 5.69624 | 21879 ft | 369 kts | 22° |
| 2026-04-29 12:19 | 60.83867 | 5.71900 | 22495 ft | 373 kts | 22° |
| 2026-04-29 12:20 | 60.86219 | 5.74203 | 23110 ft | 376 kts | 22° |
| 2026-04-29 12:20 | 60.88588 | 5.76531 | 23712 ft | 380 kts | 22° |
| 2026-04-29 12:20 | 60.90989 | 5.78898 | 24243 ft | 384 kts | 23° |
| 2026-04-29 12:20 | 60.93409 | 5.81290 | 24721 ft | 388 kts | 22° |
| 2026-04-29 12:21 | 60.95848 | 5.83716 | 25184 ft | 392 kts | 24° |
| 2026-04-29 12:21 | 60.98193 | 5.86703 | 25665 ft | 400 kts | 33° |
| 2026-04-29 12:21 | 61.00391 | 5.90240 | 26144 ft | 403 kts | 34° |
| 2026-04-29 12:21 | 61.02580 | 5.93784 | 26629 ft | 406 kts | 34° |
| 2026-04-29 12:22 | 61.04812 | 5.97401 | 27102 ft | 410 kts | 35° |
| 2026-04-29 12:22 | 61.07055 | 6.01044 | 27569 ft | 412 kts | 35° |
| 2026-04-29 12:22 | 61.09318 | 6.04726 | 28061 ft | 416 kts | 35° |
| 2026-04-29 12:22 | 61.11601 | 6.08452 | 28543 ft | 419 kts | 35° |
| 2026-04-29 12:23 | 61.13898 | 6.12199 | 28989 ft | 422 kts | 35° |
| 2026-04-29 12:23 | 61.16207 | 6.15970 | 29433 ft | 425 kts | 35° |
| 2026-04-29 12:23 | 61.18539 | 6.19790 | 29859 ft | 428 kts | 35° |
| 2026-04-29 12:23 | 61.20884 | 6.23639 | 30319 ft | 432 kts | 35° |
| 2026-04-29 12:24 | 61.23244 | 6.27514 | 30696 ft | 435 kts | 35° |
| 2026-04-29 12:24 | 61.25625 | 6.31430 | 31054 ft | 438 kts | 35° |
| 2026-04-29 12:24 | 61.28020 | 6.35372 | 31422 ft | 440 kts | 35° |
| 2026-04-29 12:24 | 61.30427 | 6.39342 | 31788 ft | 443 kts | 35° |
| 2026-04-29 12:25 | 61.32845 | 6.43342 | 32148 ft | 445 kts | 35° |
| 2026-04-29 12:25 | 61.35272 | 6.47377 | 32544 ft | 446 kts | 36° |
| 2026-04-29 12:25 | 61.40100 | 6.55434 | 33539 ft | 443 kts | 36° |
| 2026-04-29 12:26 | 61.42502 | 6.59452 | 34052 ft | 442 kts | 36° |
| 2026-04-29 12:26 | 61.44868 | 6.63419 | 34533 ft | 441 kts | 36° |
| 2026-04-29 12:26 | 61.47286 | 6.67475 | 34982 ft | 440 kts | 36° |
| 2026-04-29 12:26 | 61.49666 | 6.71472 | 35453 ft | 437 kts | 36° |
| 2026-04-29 12:27 | 61.52033 | 6.75458 | 35898 ft | 436 kts | 36° |
| 2026-04-29 12:27 | 61.54356 | 6.79383 | 36346 ft | 434 kts | 36° |
| 2026-04-29 12:27 | 61.56701 | 6.83356 | 36799 ft | 432 kts | 36° |
| 2026-04-29 12:27 | 61.59036 | 6.87318 | 37242 ft | 431 kts | 35° |
| 2026-04-29 12:28 | 61.61367 | 6.91275 | 37450 ft | 430 kts | 35° |
| 2026-04-29 12:28 | 61.65988 | 6.99147 | 37480 ft | 426 kts | 35° |
| 2026-04-29 12:29 | 61.70585 | 7.07012 | 37482 ft | 425 kts | 35° |
| 2026-04-29 12:29 | 61.75168 | 7.14889 | 37483 ft | 424 kts | 35° |
| 2026-04-29 12:30 | 61.79740 | 7.22764 | 37477 ft | 424 kts | 34° |
| 2026-04-29 12:30 | 61.84319 | 7.30677 | 37489 ft | 425 kts | 35° |
| 2026-04-29 12:31 | 61.88884 | 7.38599 | 37498 ft | 424 kts | 35° |
| 2026-04-29 12:31 | 61.93442 | 7.46551 | 37484 ft | 424 kts | 35° |
| 2026-04-29 12:32 | 61.97989 | 7.54508 | 37482 ft | 424 kts | 35° |
| 2026-04-29 12:32 | 62.02538 | 7.62489 | 37489 ft | 424 kts | 35° |
| 2026-04-29 12:33 | 62.07086 | 7.70502 | 37486 ft | 425 kts | 35° |
| 2026-04-29 12:33 | 62.11603 | 7.78519 | 37466 ft | 425 kts | 35° |
| 2026-04-29 12:34 | 62.16150 | 7.86632 | 37127 ft | 426 kts | 35° |
| 2026-04-29 12:34 | 62.18428 | 7.90704 | 36858 ft | 427 kts | 35° |
| 2026-04-29 12:34 | 62.20712 | 7.94783 | 36592 ft | 428 kts | 35° |
| 2026-04-29 12:34 | 62.23000 | 7.98874 | 36339 ft | 429 kts | 36° |
| 2026-04-29 12:35 | 62.25290 | 8.02980 | 36101 ft | 428 kts | 36° |
| 2026-04-29 12:35 | 62.27568 | 8.07084 | 35844 ft | 427 kts | 36° |
| 2026-04-29 12:35 | 62.29839 | 8.11177 | 35602 ft | 427 kts | 35° |
| 2026-04-29 12:35 | 62.32124 | 8.15303 | 35355 ft | 429 kts | 35° |
| 2026-04-29 12:36 | 62.34409 | 8.19438 | 35103 ft | 430 kts | 36° |
| 2026-04-29 12:36 | 62.36693 | 8.23581 | 34494 ft | 432 kts | 36° |
| 2026-04-29 12:36 | 62.39011 | 8.27791 | 33584 ft | 436 kts | 36° |
| 2026-04-29 12:36 | 62.41314 | 8.31988 | 33087 ft | 431 kts | 36° |
| 2026-04-29 12:37 | 62.43590 | 8.36155 | 32546 ft | 427 kts | 36° |
| 2026-04-29 12:37 | 62.45843 | 8.40290 | 32026 ft | 423 kts | 36° |
| 2026-04-29 12:37 | 62.48076 | 8.44386 | 31487 ft | 419 kts | 36° |
| 2026-04-29 12:37 | 62.50297 | 8.48463 | 30954 ft | 416 kts | 36° |
| 2026-04-29 12:38 | 62.52495 | 8.52510 | 30412 ft | 413 kts | 36° |
| 2026-04-29 12:38 | 62.54675 | 8.56533 | 29856 ft | 409 kts | 36° |
| 2026-04-29 12:38 | 62.56825 | 8.60513 | 29354 ft | 404 kts | 35° |
| 2026-04-29 12:38 | 62.58955 | 8.64460 | 28821 ft | 401 kts | 35° |
| 2026-04-29 12:39 | 62.61065 | 8.68369 | 28315 ft | 397 kts | 35° |
| 2026-04-29 12:39 | 62.63149 | 8.72232 | 27820 ft | 393 kts | 35° |
| 2026-04-29 12:39 | 62.65221 | 8.76086 | 27336 ft | 390 kts | 35° |
| 2026-04-29 12:39 | 62.67266 | 8.79899 | 26871 ft | 386 kts | 35° |
| 2026-04-29 12:40 | 62.69274 | 8.83655 | 26409 ft | 384 kts | 35° |
| 2026-04-29 12:40 | 62.71290 | 8.87437 | 25954 ft | 381 kts | 35° |
| 2026-04-29 12:40 | 62.73293 | 8.91204 | 25512 ft | 379 kts | 35° |
| 2026-04-29 12:40 | 62.75282 | 8.94948 | 25123 ft | 376 kts | 35° |
| 2026-04-29 12:41 | 62.77254 | 8.98663 | 24686 ft | 373 kts | 35° |
| 2026-04-29 12:41 | 62.79214 | 9.02357 | 24257 ft | 371 kts | 35° |
| 2026-04-29 12:41 | 62.81184 | 9.06078 | 23784 ft | 367 kts | 34° |
| 2026-04-29 12:41 | 62.83078 | 9.09664 | 23338 ft | 363 kts | 35° |
| 2026-04-29 12:42 | 62.84968 | 9.13253 | 22907 ft | 356 kts | 34° |
| 2026-04-29 12:42 | 62.86819 | 9.16780 | 22478 ft | 351 kts | 34° |
| 2026-04-29 12:42 | 62.88649 | 9.20269 | 22044 ft | 346 kts | 34° |
| 2026-04-29 12:42 | 62.90457 | 9.23718 | 21609 ft | 343 kts | 34° |
| 2026-04-29 12:43 | 62.92246 | 9.27132 | 21160 ft | 339 kts | 34° |
| 2026-04-29 12:43 | 62.94016 | 9.30516 | 20716 ft | 335 kts | 34° |
| 2026-04-29 12:43 | 62.95768 | 9.33872 | 20267 ft | 333 kts | 34° |
| 2026-04-29 12:43 | 62.97511 | 9.37210 | 19834 ft | 331 kts | 34° |
| 2026-04-29 12:44 | 62.99244 | 9.40532 | 19369 ft | 330 kts | 34° |
| 2026-04-29 12:44 | 63.00969 | 9.43848 | 18927 ft | 329 kts | 34° |
| 2026-04-29 12:44 | 63.02686 | 9.47158 | 18445 ft | 328 kts | 34° |
| 2026-04-29 12:44 | 63.04393 | 9.50460 | 17971 ft | 325 kts | 34° |
| 2026-04-29 12:45 | 63.06083 | 9.53740 | 17530 ft | 322 kts | 34° |
| 2026-04-29 12:45 | 63.07757 | 9.56989 | 17095 ft | 320 kts | 34° |
| 2026-04-29 12:45 | 63.09353 | 9.60437 | 16650 ft | 324 kts | 44° |
| 2026-04-29 12:45 | 63.10593 | 9.64654 | 16159 ft | 333 kts | 57° |
| 2026-04-29 12:46 | 63.11367 | 9.69533 | 15741 ft | 342 kts | 71° |
| 2026-04-29 12:46 | 63.11765 | 9.74752 | 15253 ft | 345 kts | 75° |
| 2026-04-29 12:46 | 63.12139 | 9.79979 | 14767 ft | 345 kts | 75° |
| 2026-04-29 12:46 | 63.12514 | 9.85226 | 14307 ft | 345 kts | 74° |
| 2026-04-29 12:47 | 63.12888 | 9.90455 | 13773 ft | 344 kts | 74° |
| 2026-04-29 12:47 | 63.13260 | 9.95599 | 13270 ft | 343 kts | 74° |
| 2026-04-29 12:47 | 63.13634 | 10.00795 | 12728 ft | 340 kts | 75° |
| 2026-04-29 12:47 | 63.13993 | 10.05892 | 12213 ft | 331 kts | 75° |
| 2026-04-29 12:48 | 63.14336 | 10.10847 | 11713 ft | 321 kts | 75° |
| 2026-04-29 12:48 | 63.14670 | 10.15675 | 11205 ft | 314 kts | 75° |
| 2026-04-29 12:48 | 63.14998 | 10.20397 | 10733 ft | 308 kts | 76° |
| 2026-04-29 12:48 | 63.15320 | 10.25028 | 10285 ft | 302 kts | 76° |
| 2026-04-29 12:49 | 63.15638 | 10.29627 | 9835 ft | 303 kts | 76° |
| 2026-04-29 12:49 | 63.15959 | 10.34249 | 9384 ft | 305 kts | 76° |
| 2026-04-29 12:49 | 63.16280 | 10.38886 | 8964 ft | 305 kts | 77° |
| 2026-04-29 12:49 | 63.16594 | 10.43483 | 8702 ft | 298 kts | 77° |
| 2026-04-29 12:50 | 63.16896 | 10.47981 | 8445 ft | 294 kts | 77° |
| 2026-04-29 12:50 | 63.17192 | 10.52421 | 8200 ft | 289 kts | 77° |
| 2026-04-29 12:50 | 63.17483 | 10.56787 | 7936 ft | 285 kts | 77° |
| 2026-04-29 12:50 | 63.17644 | 10.61141 | 7684 ft | 283 kts | 84° |
| 2026-04-29 12:51 | 63.17690 | 10.65469 | 7455 ft | 280 kts | 85° |
| 2026-04-29 12:51 | 63.17703 | 10.68304 | 7321 ft | 276 kts | 85° |
| 2026-04-29 12:51 | 63.17720 | 10.72519 | 7121 ft | 271 kts | 85° |
| 2026-04-29 12:51 | 63.17738 | 10.76657 | 6925 ft | 267 kts | 85° |
| 2026-04-29 12:52 | 63.17759 | 10.80722 | 6717 ft | 261 kts | 85° |
| 2026-04-29 12:52 | 63.17779 | 10.84684 | 6511 ft | 253 kts | 85° |
| 2026-04-29 12:52 | 63.17798 | 10.88528 | 6303 ft | 248 kts | 85° |
| 2026-04-29 12:52 | 63.17821 | 10.92324 | 6095 ft | 247 kts | 85° |
| 2026-04-29 12:53 | 63.17847 | 10.96127 | 5890 ft | 247 kts | 85° |
| 2026-04-29 12:53 | 63.18087 | 10.99830 | 5685 ft | 240 kts | 64° |
| 2026-04-29 12:53 | 63.18955 | 11.02860 | 5492 ft | 230 kts | 38° |
| 2026-04-29 12:53 | 63.20218 | 11.04925 | 5364 ft | 225 kts | 27° |
| 2026-04-29 12:54 | 63.21517 | 11.06848 | 5246 ft | 225 kts | 27° |
| 2026-04-29 12:54 | 63.22819 | 11.08788 | 5155 ft | 226 kts | 27° |
| 2026-04-29 12:54 | 63.24117 | 11.10733 | 5044 ft | 225 kts | 27° |
| 2026-04-29 12:54 | 63.25419 | 11.12686 | 4948 ft | 225 kts | 27° |
| 2026-04-29 12:55 | 63.26729 | 11.14650 | 4835 ft | 232 kts | 27° |
| 2026-04-29 12:55 | 63.28076 | 11.16664 | 4742 ft | 235 kts | 27° |
| 2026-04-29 12:55 | 63.29433 | 11.18700 | 4613 ft | 235 kts | 27° |
| 2026-04-29 12:55 | 63.30867 | 11.20351 | 4530 ft | 230 kts | 13° |
| 2026-04-29 12:56 | 63.32354 | 11.21214 | 4407 ft | 214 kts | 0° |
| 2026-04-29 12:56 | 63.33794 | 11.21361 | 4161 ft | 203 kts | 351° |
| 2026-04-29 12:56 | 63.35185 | 11.21355 | 3970 ft | 195 kts | 352° |
| 2026-04-29 12:56 | 63.36504 | 11.21367 | 3768 ft | 185 kts | 351° |
| 2026-04-29 12:57 | 63.37768 | 11.21371 | 3575 ft | 179 kts | 349° |
| 2026-04-29 12:57 | 63.39002 | 11.21369 | 3401 ft | 174 kts | 350° |
| 2026-04-29 12:57 | 63.40174 | 11.21375 | 3232 ft | 163 kts | 349° |
| 2026-04-29 12:57 | 63.41286 | 11.21216 | 3044 ft | 160 kts | 340° |
| 2026-04-29 12:58 | 63.42340 | 11.20563 | 2843 ft | 155 kts | 329° |
| 2026-04-29 12:58 | 63.43282 | 11.19484 | 2641 ft | 151 kts | 320° |
| 2026-04-29 12:58 | 63.44091 | 11.18041 | 2468 ft | 148 kts | 309° |
| 2026-04-29 12:58 | 63.44747 | 11.16318 | 2280 ft | 142 kts | 301° |
| 2026-04-29 12:59 | 63.45231 | 11.14445 | 2089 ft | 137 kts | 292° |
| 2026-04-29 12:59 | 63.45553 | 11.12429 | 1876 ft | 137 kts | 283° |
| 2026-04-29 12:59 | 63.45702 | 11.10399 | 1680 ft | 124 kts | 274° |
| 2026-04-29 12:59 | 63.45716 | 11.08579 | 1476 ft | 113 kts | 270° |
| 2026-04-29 13:00 | 63.45721 | 11.06835 | 1304 ft | 112 kts | 270° |
| 2026-04-29 13:00 | 63.45726 | 11.05107 | 1148 ft | 110 kts | 270° |
| 2026-04-29 13:00 | 63.45732 | 11.03415 | 984 ft | 108 kts | 271° |
| 2026-04-29 13:00 | 63.45722 | 11.01701 | 1028 ft | 112 kts | 271° |
| 2026-04-29 13:01 | 63.45730 | 10.99924 | 699 ft | 111 kts | 272° |
| 2026-04-29 13:01 | 63.45735 | 10.98246 | 502 ft | 107 kts | 270° |
| 2026-04-29 13:01 | 63.45750 | 10.96582 | 327 ft | 107 kts | 272° |
| 2026-04-29 13:01 | 63.45758 | 10.94902 | 180 ft | 108 kts | 270° |
| 2026-04-29 13:02 | 63.45757 | 10.93256 | 53 ft | 99 kts | 270° |
| 2026-04-29 13:02 | 63.45759 | 10.92211 | 41 ft | 32 kts | 270° |
| 2026-04-29 13:02 | 63.45759 | 10.91773 | 38 ft | 25 kts | 270° |
| 2026-04-29 13:02 | 63.45740 | 10.91532 | 37 ft | 11 kts | 206° |
| 2026-04-29 13:03 | 63.45691 | 10.91518 | 38 ft | 4 kts | 179° |
| 2026-04-29 13:03 | 63.45642 | 10.91519 | 38 ft | 6 kts | 180° |
| 2026-04-29 13:03 | 63.45603 | 10.91538 | 37 ft | 7 kts | 118° |
| 2026-04-29 13:03 | 63.45596 | 10.91677 | 39 ft | 11 kts | 90° |
| 2026-04-29 13:04 | 63.45582 | 10.91742 | 38 ft | 6 kts | 156° |
| 2026-04-29 13:04 | 63.45529 | 10.91748 | 39 ft | 7 kts | 182° |
| 2026-04-29 13:04 | 63.45511 | 10.91746 | 39 ft | 4 kts | 182° |
| 2026-04-29 13:04 | 63.45495 | 10.91745 | 39 ft | 0 kts | 182° |
| 2026-04-29 13:07 | 63.45496 | 10.91744 | 39 ft | 0 kts | 180° |